Madison, WI (53713)

10:41 PM CDT on October 01, 2014 (GMT -0500)
Swan Creek | Change Station
CLOSE
Current Station
Personal Weather Station
Location: Fitchburg, WI
Elevation: 909 ft
Nearby Weather Stations

Elev 909 ft 43.00 °N, 89.40 °W | Updated 5 seconds ago

Mostly Cloudy
Mostly Cloudy
62.1 °F
Feels Like 62.1 °F
N
0.0
Wind Variable Wind from SSW
Gusts 0.0 mph

Today
High -- | Low -- °F
--% Chance of Precip.
Yesterday
High -- | Low -- °F
Precip. -- in
6:54 AM 6:38 PM
First Quarter, 54% visible
Pressure 29.88 in
Visibility 10.0 miles
Clouds Few 4600 ft
Few 5500 ft
Mostly Cloudy 8000 ft
Mostly Cloudy 25000 ft
Dew Point 56 °F
Humidity 79%
Rainfall 0.00 in
Snow Depth Not available.
UV 0 out of 12
Pollen 3.00 out of 12
PM2.5 Good
Flu Activity Not available.
METAR KMSN 020253Z 12004KT 10SM FEW046 FEW055 BKN080 BKN250 16/12 A2988 RMK AO2 SLP118 T01610117 53003

More Conditions Fewer Conditions

Pressure 29.88 in
Visibility 10.0 miles
Clouds Few 4600 ft
Few 5500 ft
Mostly Cloudy 8000 ft
Mostly Cloudy 25000 ft
Dew Point 56 °F
Humidity 79%
Rainfall 0.00 in
Snow Depth Not available.
UV 0 out of 12
Pollen 3.00 out of 12
PM2.5 Good
Flu Activity Not available.
METAR KMSN 020253Z 12004KT 10SM FEW046 FEW055 BKN080 BKN250 16/12 A2988 RMK AO2 SLP118 T01610117 53003

More Conditions Fewer Conditions

10-Day Weather Forecast

Almanac

Astronomy

Oct. 01, 2014 Rise Set
Actual Time 6:54 AM CDT 6:38 PM CDT
Civil Twilight 6:26 AM CDT 7:07 PM CDT
Nautical Twilight 5:53 AM CDT 7:39 PM CDT
Astronomical Twilight 5:20 AM CDT 8:13 PM CDT
Moon 2:02 PM CDT (10/1) No Moon Set
Length of Visible Light 12h 40m
Length of Day
11h 43m
Tomorrow will be 2m 54s shorter.
First Quarter, 54% of the Moon is Illuminated
Today
First Quarter
Oct 8
Full
Oct 15
Last Quarter
Oct 23
New
Oct 30
First Quarter

Today's Extremes

State Highs State Lows

Community

WunderPhotos

Upload Photos

1,758,170 photos uploaded!

Nearby

Air Quality

  Air Quality AQ Index Pollutant
Yesterday Good
OZONE
Yesterday Good
PM2.5
Current Good
PM2.5
Wednesday Good
OZONE
Wednesday Good
PM2.5
Thursday Good
OZONE
Thursday Good
PM2.5
Friday Good
OZONE
Friday Good
PM2.5
Saturday Good
OZONE
Saturday Good
PM2.5
Sunday Good
OZONE
Sunday Good
PM2.5

Snow Depth

Station Depth Elevation
No new snow has been reported.

Earthquake Activity

City Distance Mag. Time & Date
No recent earthquake activity has been reported nearby.
Minimum magnitude displayed is 2.5.

Coastal Water Temperatures

Place Temperature
No Stations Reporting

Nearby Weather Stations